Time;durP1;ratioP1;P1;durP2;ratioP2;P2;SDS_P1;SDS_P2;PMS_P1;PMS_P2;Temp;Humidity;BMP_temperature;BMP_pressure;BME280_temperature;BME280_humidity;BME280_pressure;Samples;Min_cycle;Max_cycle;Signal;HPM_P1;HPM_P2
2021/05/20 00:02:10;;;;;;;1.25;0.90;;;17.10;57.90;;;;;;5053359;28;20178;-62
2021/05/20 00:04:35;;;;;;;2.05;1.23;;;17.10;57.90;;;;;;5052199;28;20186;-62
2021/05/20 00:07:01;;;;;;;1.42;1.10;;;17.10;57.90;;;;;;5052955;28;20182;-62
2021/05/20 00:09:26;;;;;;;0.90;0.90;;;17.10;57.90;;;;;;5052254;28;20221;-62
2021/05/20 00:11:52;;;;;;;1.35;1.20;;;17.10;57.90;;;;;;5052394;28;20724;-61
2021/05/20 00:14:17;;;;;;;1.33;0.93;;;17.10;57.90;;;;;;5052764;28;20167;-62
2021/05/20 00:16:43;;;;;;;1.52;1.15;;;17.10;57.90;;;;;;5051755;28;20224;-62
2021/05/20 00:19:08;;;;;;;1.58;1.48;;;17.10;58.00;;;;;;5052896;28;20182;-62
2021/05/20 00:21:34;;;;;;;1.25;1.15;;;17.10;57.90;;;;;;5052530;28;20163;-62
2021/05/20 00:24:00;;;;;;;2.50;1.23;;;17.10;57.90;;;;;;5051977;28;20244;-62
2021/05/20 00:26:25;;;;;;;1.42;1.17;;;17.10;58.00;;;;;;5052599;28;20523;-62
2021/05/20 00:28:51;;;;;;;1.30;1.20;;;17.10;57.90;;;;;;5051315;28;20178;-61
2021/05/20 00:31:16;;;;;;;1.30;1.20;;;17.10;57.90;;;;;;5052124;28;20190;-61
2021/05/20 00:33:42;;;;;;;1.25;1.08;;;17.00;57.90;;;;;;5052646;28;20179;-61
2021/05/20 00:36:07;;;;;;;1.38;1.08;;;17.10;58.00;;;;;;5052411;28;20231;-61
2021/05/20 00:38:36;;;;;;;0.93;0.93;;;17.00;57.90;;;;;;5051587;28;20178;-61
2021/05/20 00:41:01;;;;;;;1.40;1.30;;;17.10;58.00;;;;;;5052445;28;20254;-62
2021/05/20 00:43:27;;;;;;;2.40;1.30;;;17.00;58.00;;;;;;5052289;28;20187;-61
2021/05/20 00:45:53;;;;;;;1.63;1.50;;;17.00;57.90;;;;;;5051457;28;20167;-61
2021/05/20 00:48:19;;;;;;;1.10;0.93;;;17.00;58.00;;;;;;5052786;28;20190;-62
2021/05/20 00:50:44;;;;;;;1.20;1.02;;;17.00;58.00;;;;;;5052173;28;20656;-62
2021/05/20 00:53:11;;;;;;;1.58;1.30;;;17.00;58.00;;;;;;5051633;28;20669;-62
2021/05/20 00:55:37;;;;;;;1.20;1.10;;;17.00;58.00;;;;;;5052162;28;20580;-62
2021/05/20 00:58:02;;;;;;;1.17;1.00;;;17.00;58.00;;;;;;5034466;28;20694;-62
2021/05/20 01:00:28;;;;;;;1.05;0.95;;;17.00;58.00;;;;;;5033856;28;20183;-62
2021/05/20 01:02:53;;;;;;;1.48;1.13;;;17.00;58.00;;;;;;5052159;28;20187;-62
2021/05/20 01:05:19;;;;;;;1.95;1.23;;;17.00;58.00;;;;;;5052442;28;20202;-62
2021/05/20 01:07:44;;;;;;;1.35;1.00;;;17.00;58.00;;;;;;5051332;28;20183;-62
2021/05/20 01:10:10;;;;;;;1.20;1.10;;;17.00;58.00;;;;;;5052434;28;20255;-62
2021/05/20 01:12:35;;;;;;;1.00;1.00;;;17.00;58.00;;;;;;5051178;28;20206;-62
2021/05/20 01:15:01;;;;;;;1.80;1.00;;;17.00;58.00;;;;;;5052484;28;20171;-62
2021/05/20 01:17:27;;;;;;;1.15;1.02;;;17.00;58.00;;;;;;5052372;28;20179;-62
2021/05/20 01:19:53;;;;;;;1.00;0.90;;;16.90;58.00;;;;;;5051116;28;20282;-62
2021/05/20 01:22:18;;;;;;;1.10;1.00;;;16.90;58.00;;;;;;5052110;28;20203;-62
2021/05/20 01:24:44;;;;;;;1.20;1.10;;;16.90;58.00;;;;;;5051735;28;20258;-62
2021/05/20 01:27:10;;;;;;;1.20;1.10;;;16.90;58.00;;;;;;5051345;28;20251;-61
2021/05/20 01:29:37;;;;;;;0.90;0.90;;;16.90;58.00;;;;;;5052196;28;20229;-61
2021/05/20 01:32:03;;;;;;;1.48;1.17;;;16.90;58.00;;;;;;5052093;28;20218;-61
2021/05/20 01:34:32;;;;;;;1.20;1.10;;;16.90;58.00;;;;;;5051128;28;20580;-61
2021/05/20 01:36:58;;;;;;;1.98;1.35;;;16.90;58.00;;;;;;5052017;28;20184;-62
2021/05/20 01:39:24;;;;;;;1.20;1.10;;;16.90;58.00;;;;;;5052562;28;20202;-62
2021/05/20 01:41:49;;;;;;;1.77;1.05;;;16.90;58.00;;;;;;5054794;28;20228;-61
2021/05/20 01:44:16;;;;;;;1.45;1.33;;;16.90;58.00;;;;;;5055783;28;20206;-62
2021/05/20 01:46:41;;;;;;;1.73;1.63;;;16.90;58.00;;;;;;5055546;28;20179;-62
2021/05/20 01:49:10;;;;;;;1.15;1.05;;;16.90;58.00;;;;;;5054852;28;20580;-62
2021/05/20 01:51:35;;;;;;;1.83;1.42;;;16.80;57.90;;;;;;5055621;28;20211;-62
2021/05/20 01:54:01;;;;;;;1.40;1.30;;;16.90;58.00;;;;;;5055435;28;20191;-62
2021/05/20 01:56:27;;;;;;;1.70;1.60;;;16.90;58.00;;;;;;5054749;28;20261;-62
2021/05/20 01:58:53;;;;;;;1.63;1.38;;;16.90;58.00;;;;;;5055108;28;20714;-62
2021/05/20 02:01:18;;;;;;;1.38;1.27;;;16.80;58.00;;;;;;5055508;28;20197;-62
2021/05/20 02:03:44;;;;;;;1.42;1.33;;;16.80;58.00;;;;;;5054367;28;20179;-62
2021/05/20 02:06:09;;;;;;;1.63;1.50;;;16.80;58.00;;;;;;5055362;28;20194;-62
2021/05/20 02:08:36;;;;;;;1.50;1.40;;;16.80;58.00;;;;;;5054856;28;20245;-62
2021/05/20 02:11:02;;;;;;;1.58;1.48;;;16.80;58.00;;;;;;5054421;28;20175;-61
2021/05/20 02:13:27;;;;;;;1.60;1.20;;;16.80;58.00;;;;;;5054981;28;20761;-61
2021/05/20 02:15:53;;;;;;;1.45;1.30;;;16.80;58.00;;;;;;5054354;28;20425;-62
2021/05/20 02:18:19;;;;;;;1.70;1.60;;;16.80;58.00;;;;;;5054917;28;20308;-62
2021/05/20 02:20:45;;;;;;;2.00;1.80;;;16.80;58.00;;;;;;5054684;28;20179;-62
2021/05/20 02:23:11;;;;;;;1.50;1.40;;;16.80;58.00;;;;;;5054398;28;20175;-63
2021/05/20 02:25:36;;;;;;;1.58;1.48;;;16.80;58.00;;;;;;5054587;28;20181;-61
2021/05/20 02:28:02;;;;;;;1.80;1.70;;;16.80;58.00;;;;;;5055023;28;20258;-61
2021/05/20 02:30:28;;;;;;;1.48;1.38;;;16.80;58.00;;;;;;5054158;28;20202;-61
2021/05/20 02:32:53;;;;;;;1.67;1.30;;;16.80;58.00;;;;;;5054267;28;20254;-61
2021/05/20 02:35:19;;;;;;;1.60;1.50;;;16.80;58.70;;;;;;5054621;28;20222;-62
2021/05/20 02:37:45;;;;;;;1.45;1.35;;;16.80;58.10;;;;;;5053770;28;20187;-62
2021/05/20 02:40:11;;;;;;;1.73;1.40;;;16.70;58.00;;;;;;5054603;28;20171;-62
2021/05/20 02:42:37;;;;;;;1.90;1.67;;;16.80;58.00;;;;;;5054408;28;20179;-62
2021/05/20 02:45:05;;;;;;;1.40;1.30;;;16.80;58.10;;;;;;5053954;28;20171;-62
2021/05/20 02:47:31;;;;;;;1.70;1.60;;;16.80;58.10;;;;;;5054587;28;20638;-63
2021/05/20 02:49:56;;;;;;;1.60;1.50;;;16.80;58.10;;;;;;5054406;28;20171;-62
2021/05/20 02:52:22;;;;;;;1.63;1.52;;;16.70;58.00;;;;;;5052761;28;20215;-62
2021/05/20 02:54:47;;;;;;;2.30;1.40;;;16.70;58.00;;;;;;5053902;28;20179;-62
2021/05/20 02:57:13;;;;;;;1.52;1.42;;;16.70;58.00;;;;;;5054527;28;20175;-62
2021/05/20 02:59:38;;;;;;;1.50;1.40;;;16.70;58.10;;;;;;5053308;28;20175;-62
2021/05/20 03:02:05;;;;;;;1.63;1.52;;;16.70;58.00;;;;;;5054209;28;20655;-62
2021/05/20 03:04:31;;;;;;;1.52;1.42;;;16.70;58.10;;;;;;5054055;28;20175;-62
2021/05/20 03:06:57;;;;;;;1.50;1.40;;;16.70;58.10;;;;;;5053464;28;20175;-62
2021/05/20 03:09:23;;;;;;;1.92;1.83;;;16.70;58.10;;;;;;5054216;28;20186;-61
2021/05/20 03:11:48;;;;;;;1.67;1.58;;;16.70;58.00;;;;;;5053684;28;20206;-61
2021/05/20 03:14:14;;;;;;;1.45;1.35;;;16.70;58.10;;;;;;5053268;28;20186;-62
2021/05/20 03:16:39;;;;;;;1.60;1.50;;;16.70;58.00;;;;;;5053731;28;20658;-61
2021/05/20 03:19:05;;;;;;;1.70;1.30;;;16.70;58.10;;;;;;5053772;28;20548;-62
2021/05/20 03:21:30;;;;;;;1.30;1.20;;;16.70;58.10;;;;;;5053082;28;20248;-62
2021/05/20 03:23:56;;;;;;;1.40;1.30;;;16.70;58.10;;;;;;5053673;28;20201;-62
2021/05/20 03:26:21;;;;;;;1.30;1.20;;;16.70;58.10;;;;;;5053217;28;20182;-62
2021/05/20 03:28:47;;;;;;;1.65;1.55;;;16.70;58.10;;;;;;5053622;28;20513;-61
2021/05/20 03:31:12;;;;;;;1.75;1.52;;;16.70;58.10;;;;;;5053796;28;20164;-61
2021/05/20 03:33:40;;;;;;;1.52;1.42;;;16.60;58.10;;;;;;5052707;28;20215;-61
2021/05/20 03:36:06;;;;;;;1.42;1.30;;;16.60;58.10;;;;;;5053513;28;20304;-62
2021/05/20 03:38:32;;;;;;;1.38;1.27;;;16.60;58.10;;;;;;5053168;28;20268;-61
2021/05/20 03:40:57;;;;;;;1.30;1.20;;;16.60;58.10;;;;;;5052707;28;20604;-61
2021/05/20 03:43:23;;;;;;;1.52;1.20;;;16.60;58.10;;;;;;5053610;28;20186;-62
2021/05/20 03:45:49;;;;;;;1.30;1.20;;;16.60;58.10;;;;;;5053337;28;20213;-61
2021/05/20 03:48:14;;;;;;;1.60;1.27;;;16.60;58.70;;;;;;5052824;28;20218;-62
2021/05/20 03:50:40;;;;;;;1.50;1.40;;;16.60;58.10;;;;;;5052995;28;20168;-61
2021/05/20 03:53:05;;;;;;;1.40;1.30;;;16.60;58.10;;;;;;5053211;28;20329;-61
2021/05/20 03:55:31;;;;;;;1.42;1.33;;;16.60;58.10;;;;;;5052483;28;20614;-61
2021/05/20 03:57:57;;;;;;;1.40;1.30;;;16.60;58.10;;;;;;5053106;28;20548;-62
2021/05/20 04:00:23;;;;;;;1.42;1.33;;;16.60;58.10;;;;;;5053267;28;20180;-62
2021/05/20 04:02:49;;;;;;;1.50;1.40;;;16.60;58.10;;;;;;5051660;28;20266;-62
2021/05/20 04:05:15;;;;;;;1.50;1.40;;;16.60;58.10;;;;;;5053112;28;20175;-62
2021/05/20 04:07:40;;;;;;;1.48;1.38;;;16.60;58.10;;;;;;5052705;28;20518;-62
2021/05/20 04:10:06;;;;;;;1.08;1.05;;;16.60;58.10;;;;;;5052147;28;20171;-61
2021/05/20 04:12:32;;;;;;;1.63;1.50;;;16.60;58.10;;;;;;5052834;28;20215;-61
2021/05/20 04:14:57;;;;;;;1.63;1.52;;;16.60;58.10;;;;;;5052853;28;20170;-61
2021/05/20 04:17:23;;;;;;;2.20;1.45;;;16.60;58.10;;;;;;5052107;28;20175;-62
2021/05/20 04:19:48;;;;;;;1.15;1.08;;;16.60;58.10;;;;;;5052589;28;20638;-63
2021/05/20 04:22:14;;;;;;;1.17;1.10;;;16.60;58.10;;;;;;5052664;28;20197;-62
2021/05/20 04:24:39;;;;;;;1.38;1.10;;;16.60;58.10;;;;;;5051938;28;20166;-62
2021/05/20 04:27:05;;;;;;;1.50;1.40;;;16.60;58.10;;;;;;5052735;28;20202;-61
2021/05/20 04:29:31;;;;;;;1.30;1.15;;;16.60;58.10;;;;;;5051979;28;20179;-61
2021/05/20 04:31:56;;;;;;;1.27;1.20;;;16.60;58.10;;;;;;5052551;28;20207;-62
2021/05/20 04:34:22;;;;;;;1.38;1.27;;;16.60;58.10;;;;;;5052582;28;20217;-61
2021/05/20 04:36:47;;;;;;;1.58;1.48;;;16.60;58.10;;;;;;5051118;28;20284;-62
2021/05/20 04:39:13;;;;;;;1.73;1.63;;;16.60;58.10;;;;;;5052320;28;20171;-62
2021/05/20 04:41:38;;;;;;;1.65;1.52;;;16.60;58.10;;;;;;5052102;28;20512;-62
2021/05/20 04:44:04;;;;;;;1.58;1.48;;;16.60;58.10;;;;;;5051630;28;20183;-62
2021/05/20 04:46:29;;;;;;;1.40;1.30;;;16.60;58.10;;;;;;5052630;28;20179;-62
2021/05/20 04:48:55;;;;;;;1.90;1.80;;;16.60;58.10;;;;;;5052162;28;20175;-62
2021/05/20 04:51:21;;;;;;;1.48;1.38;;;16.60;58.10;;;;;;5051685;28;20171;-62
2021/05/20 04:53:47;;;;;;;1.50;1.40;;;16.60;58.10;;;;;;5052157;28;20214;-62
2021/05/20 04:56:12;;;;;;;1.40;1.30;;;16.60;58.10;;;;;;5052493;28;20197;-62
2021/05/20 04:58:38;;;;;;;1.20;1.15;;;16.60;58.10;;;;;;5051295;28;20178;-62
2021/05/20 05:01:03;;;;;;;1.30;1.20;;;16.60;58.10;;;;;;5052210;28;20676;-62
2021/05/20 05:03:29;;;;;;;1.58;1.20;;;16.60;58.10;;;;;;5052327;28;20179;-63
2021/05/20 05:05:55;;;;;;;1.42;1.33;;;16.60;58.00;;;;;;5051214;28;20202;-62
2021/05/20 05:08:20;;;;;;;1.10;1.00;;;16.60;58.20;;;;;;5052164;28;20198;-62
2021/05/20 05:10:46;;;;;;;1.10;1.10;;;16.70;58.20;;;;;;5051904;28;20630;-62
2021/05/20 05:13:12;;;;;;;1.50;1.27;;;16.90;58.10;;;;;;5051521;28;20301;-62
2021/05/20 05:15:37;;;;;;;1.10;1.10;;;17.20;57.90;;;;;;5054477;28;20172;-62
2021/05/20 05:18:03;;;;;;;1.33;1.23;;;17.40;58.40;;;;;;5055973;28;20171;-62
2021/05/20 05:20:28;;;;;;;1.30;1.10;;;17.60;58.00;;;;;;5055221;28;20661;-63
2021/05/20 05:22:54;;;;;;;1.08;0.98;;;17.90;56.60;;;;;;5055718;28;20171;-63
2021/05/20 05:25:19;;;;;;;1.83;1.13;;;18.30;55.90;;;;;;5056297;28;20167;-63
2021/05/20 05:27:45;;;;;;;0.70;0.70;;;18.50;55.40;;;;;;5054952;28;20505;-62
2021/05/20 05:30:11;;;;;;;0.88;0.88;;;18.70;55.10;;;;;;5056053;28;20205;-61
2021/05/20 05:32:36;;;;;;;0.90;0.90;;;18.80;54.80;;;;;;5055689;28;20207;-62
2021/05/20 05:35:02;;;;;;;0.70;0.70;;;18.90;54.60;;;;;;5054832;28;20215;-62
2021/05/20 05:37:28;;;;;;;0.60;0.60;;;19.10;54.60;;;;;;5056039;28;20183;-62
2021/05/20 05:39:53;;;;;;;0.88;0.88;;;19.10;54.50;;;;;;5054558;28;20175;-62
2021/05/20 05:42:19;;;;;;;0.80;0.80;;;19.20;54.40;;;;;;5055806;28;20266;-62
2021/05/20 05:44:44;;;;;;;0.98;0.90;;;19.20;54.40;;;;;;5055518;28;20175;-63
2021/05/20 05:47:10;;;;;;;0.70;0.70;;;19.20;54.40;;;;;;5055027;28;20885;-63
2021/05/20 05:49:42;;;;;;;0.70;0.70;;;19.20;54.40;;;;;;5055157;28;20254;-62
2021/05/20 05:52:09;;;;;;;0.80;0.80;;;19.10;54.50;;;;;;5055744;28;20211;-62
2021/05/20 05:54:35;;;;;;;1.30;1.10;;;19.10;54.60;;;;;;5054644;28;20653;-62
2021/05/20 05:57:00;;;;;;;0.82;0.82;;;19.00;54.80;;;;;;5055538;28;20186;-63
2021/05/20 05:59:26;;;;;;;0.82;0.82;;;18.90;55.00;;;;;;5055493;28;20693;-63
2021/05/20 06:01:51;;;;;;;0.77;0.77;;;18.90;55.20;;;;;;5053942;28;20621;-63
2021/05/20 06:04:17;;;;;;;1.08;0.90;;;18.80;55.30;;;;;;5054988;28;20633;-63
2021/05/20 06:06:43;;;;;;;0.90;0.90;;;18.70;55.40;;;;;;5055169;28;20202;-63
2021/05/20 06:09:09;;;;;;;0.75;0.70;;;18.60;55.50;;;;;;5054433;28;20672;-62
2021/05/20 06:11:34;;;;;;;0.80;0.80;;;18.60;55.80;;;;;;5054786;28;20187;-62
2021/05/20 06:14:05;;;;;;;0.82;0.70;;;18.50;55.80;;;;;;5054922;28;20175;-62
2021/05/20 06:16:33;;;;;;;1.20;1.10;;;18.40;55.90;;;;;;5054323;28;20171;-62
2021/05/20 06:18:58;;;;;;;1.10;1.00;;;18.40;56.10;;;;;;5054740;28;20642;-62
2021/05/20 06:21:24;;;;;;;0.70;0.70;;;18.30;56.30;;;;;;5055207;28;20190;-63
2021/05/20 06:23:49;;;;;;;1.20;1.13;;;18.20;56.40;;;;;;5053810;28;20174;-62
2021/05/20 06:26:15;;;;;;;0.85;0.85;;;18.20;56.50;;;;;;5053588;28;20210;-62
2021/05/20 06:28:41;;;;;;;0.90;0.90;;;18.20;56.50;;;;;;5054750;28;20167;-62
2021/05/20 06:31:06;;;;;;;0.80;0.80;;;18.20;56.50;;;;;;5053981;28;20669;-62
2021/05/20 06:33:32;;;;;;;1.00;1.00;;;18.20;56.60;;;;;;5054155;28;20211;-62
2021/05/20 06:35:57;;;;;;;0.90;0.90;;;18.20;56.60;;;;;;5054321;28;20282;-62
2021/05/20 06:38:23;;;;;;;0.80;0.80;;;18.20;56.70;;;;;;5054079;28;20180;-62
2021/05/20 06:40:49;;;;;;;1.05;0.98;;;18.10;56.70;;;;;;5054303;28;20509;-62
2021/05/20 06:43:14;;;;;;;0.85;0.85;;;18.10;56.80;;;;;;5054073;28;20202;-62
2021/05/20 06:45:40;;;;;;;0.80;0.80;;;18.10;56.90;;;;;;5054247;28;20171;-62
2021/05/20 06:48:05;;;;;;;0.90;0.90;;;18.10;56.90;;;;;;5054272;28;20182;-63
2021/05/20 06:50:31;;;;;;;0.90;0.90;;;18.10;57.00;;;;;;5053666;28;20703;-63
2021/05/20 06:52:58;;;;;;;0.90;0.90;;;18.10;57.00;;;;;;5054330;28;20345;-62
2021/05/20 06:55:23;;;;;;;0.95;0.90;;;18.10;56.90;;;;;;5054487;28;20258;-62
2021/05/20 07:00:34;;;;;;;1.25;1.02;;;18.10;56.90;;;;;;5054038;28;20212;-62
2021/05/20 07:02:59;;;;;;;1.60;1.10;;;18.10;56.90;;;;;;5054021;28;20532;-62
2021/05/20 07:05:25;;;;;;;0.80;0.80;;;18.00;57.00;;;;;;5053747;28;20179;-62
2021/05/20 07:07:50;;;;;;;1.15;1.05;;;18.00;57.00;;;;;;5053990;28;20175;-62
2021/05/20 07:10:16;;;;;;;1.27;1.17;;;18.10;57.00;;;;;;5036407;28;20622;-62
2021/05/20 07:12:41;;;;;;;1.10;1.00;;;18.10;57.60;;;;;;5053099;28;20207;-61
2021/05/20 07:15:07;;;;;;;1.20;1.10;;;18.10;56.90;;;;;;5035972;28;20522;-61
2021/05/20 07:17:33;;;;;;;1.08;0.90;;;18.20;56.90;;;;;;5053608;28;20189;-63
2021/05/20 07:19:58;;;;;;;1.40;1.30;;;18.20;57.00;;;;;;5053160;28;20599;-68
2021/05/20 07:22:24;;;;;;;1.65;1.55;;;18.30;57.00;;;;;;5053940;28;20229;-67
2021/05/20 07:24:49;;;;;;;1.48;1.38;;;18.30;56.90;;;;;;5053416;28;20205;-67
2021/05/20 07:27:15;;;;;;;2.55;1.83;;;18.20;56.90;;;;;;5053209;28;20167;-66
2021/05/20 07:29:40;;;;;;;2.88;1.90;;;18.20;56.90;;;;;;5053310;28;20186;-66
2021/05/20 07:32:07;;;;;;;2.25;1.88;;;18.20;57.00;;;;;;5053478;28;20665;-66
2021/05/20 07:34:35;;;;;;;1.85;1.75;;;18.20;57.10;;;;;;5052933;28;20252;-66
2021/05/20 07:37:01;;;;;;;2.28;2.08;;;18.20;57.00;;;;;;5053174;28;20276;-62
2021/05/20 07:39:26;;;;;;;4.90;2.47;;;18.20;57.00;;;;;;5053031;28;20171;-61
2021/05/20 07:41:52;;;;;;;2.78;2.13;;;18.20;57.10;;;;;;5053209;28;20540;-62
2021/05/20 07:44:17;;;;;;;3.25;2.03;;;18.20;57.10;;;;;;5053663;28;20194;-62
2021/05/20 07:46:43;;;;;;;4.25;1.73;;;18.30;57.20;;;;;;5052616;28;20175;-62
2021/05/20 07:49:08;;;;;;;1.75;1.65;;;18.30;57.20;;;;;;5053500;28;20179;-62
2021/05/20 07:51:34;;;;;;;3.00;2.05;;;18.40;57.20;;;;;;5053082;28;20176;-62
2021/05/20 07:53:59;;;;;;;2.40;2.00;;;18.40;57.30;;;;;;5052888;28;20175;-63
2021/05/20 07:56:26;;;;;;;2.67;1.98;;;18.40;57.20;;;;;;5053613;28;20198;-64
2021/05/20 07:58:54;;;;;;;2.22;2.03;;;18.40;57.30;;;;;;5052966;28;20187;-65
2021/05/20 08:01:21;;;;;;;3.70;1.77;;;18.40;57.30;;;;;;5052932;28;20182;-63
2021/05/20 08:03:53;;;;;;;2.30;1.98;;;18.40;57.40;;;;;;5052989;28;20175;-63
2021/05/20 08:06:29;;;;;;;1.90;1.70;;;18.40;57.50;;;;;;5053408;28;20179;-64
2021/05/20 08:09:13;;;;;;;2.15;1.80;;;18.40;57.50;;;;;;5052630;28;20175;-63
2021/05/20 08:11:41;;;;;;;1.75;1.65;;;18.40;57.60;;;;;;5052729;28;20171;-63
2021/05/20 08:14:07;;;;;;;2.30;1.70;;;18.40;57.60;;;;;;5053278;28;20179;-63
2021/05/20 08:16:32;;;;;;;2.47;2.03;;;18.50;57.60;;;;;;5052398;28;20186;-63
2021/05/20 08:18:59;;;;;;;3.15;2.13;;;18.50;57.60;;;;;;5052964;28;20225;-63
2021/05/20 08:21:25;;;;;;;1.92;1.60;;;18.50;57.60;;;;;;5053457;28;20190;-64
2021/05/20 08:23:50;;;;;;;2.60;2.17;;;18.50;57.60;;;;;;5051899;28;20179;-63
2021/05/20 08:26:16;;;;;;;3.45;2.38;;;18.50;57.60;;;;;;5053085;28;20182;-63
2021/05/20 08:28:41;;;;;;;2.20;1.73;;;18.50;57.60;;;;;;5052280;28;20178;-63
2021/05/20 08:31:06;;;;;;;2.97;1.83;;;18.50;57.70;;;;;;5052741;28;20229;-63
2021/05/20 08:33:32;;;;;;;2.10;1.90;;;18.50;57.80;;;;;;5052516;28;20677;-63
2021/05/20 08:35:57;;;;;;;1.98;1.88;;;18.50;57.80;;;;;;5051970;28;20258;-63
2021/05/20 08:38:23;;;;;;;2.65;2.10;;;18.50;57.80;;;;;;5052814;28;20266;-63
2021/05/20 08:40:48;;;;;;;2.78;2.25;;;18.50;57.80;;;;;;5052545;28;20206;-63
2021/05/20 08:43:14;;;;;;;2.30;2.10;;;18.50;57.70;;;;;;5052291;28;20261;-63
2021/05/20 08:45:40;;;;;;;2.22;1.88;;;18.50;57.70;;;;;;5052782;28;20641;-64
2021/05/20 08:48:06;;;;;;;3.03;2.30;;;18.50;57.80;;;;;;5052648;28;20179;-69
2021/05/20 08:50:32;;;;;;;3.50;2.28;;;18.60;57.70;;;;;;5050797;28;20573;-69
2021/05/20 08:52:58;;;;;;;3.17;2.70;;;18.60;57.60;;;;;;5052414;28;20217;-69
2021/05/20 08:55:25;;;;;;;3.78;3.40;;;18.60;57.50;;;;;;5050988;28;20183;-69
2021/05/20 08:57:50;;;;;;;4.40;4.00;;;18.60;57.40;;;;;;5051205;28;20537;-70
2021/05/20 09:00:20;;;;;;;7.43;5.60;;;18.50;57.40;;;;;;5052624;28;20175;-69
2021/05/20 09:02:46;;;;;;;11.02;8.45;;;18.50;57.30;;;;;;5052305;28;20202;-69
2021/05/20 09:05:16;;;;;;;11.60;9.63;;;18.40;57.10;;;;;;5051947;28;20203;-69
2021/05/20 09:07:42;;;;;;;10.60;9.50;;;18.40;57.00;;;;;;5052011;28;20630;-69
2021/05/20 09:10:21;;;;;;;14.85;12.35;;;18.40;56.80;;;;;;5052318;28;20179;-62
2021/05/20 09:12:51;;;;;;;15.45;13.55;;;18.50;56.50;;;;;;5031410;28;20203;-62
2021/05/20 09:15:36;;;;;;;19.75;16.83;;;18.50;56.30;;;;;;5032323;28;20619;-63
2021/05/20 09:18:11;;;;;;;20.95;16.20;;;18.40;56.00;;;;;;5031700;28;20179;-62
2021/05/20 09:20:39;;;;;;;20.85;16.17;;;18.30;56.00;;;;;;5032207;28;20190;-63
2021/05/20 09:23:08;;;;;;;22.60;16.70;;;18.30;56.10;;;;;;5032299;28;20192;-63
2021/05/20 09:25:35;;;;;;;20.17;16.23;;;18.30;56.10;;;;;;5031352;28;20548;-63
2021/05/20 09:28:00;;;;;;;21.35;15.73;;;18.30;56.10;;;;;;5037709;28;20233;-62
2021/05/20 09:30:27;;;;;;;19.17;15.13;;;18.30;56.10;;;;;;5052031;28;20179;-62
2021/05/20 09:32:58;;;;;;;17.70;15.45;;;18.30;56.10;;;;;;5050859;28;20681;-62
2021/05/20 09:35:29;;;;;;;18.05;15.40;;;18.30;56.00;;;;;;5052117;28;20221;-62
2021/05/20 09:38:01;;;;;;;17.33;14.13;;;18.30;56.00;;;;;;5051810;28;20186;-63
2021/05/20 09:40:33;;;;;;;17.33;14.57;;;18.30;56.00;;;;;;5051248;28;20664;-62
2021/05/20 09:42:58;;;;;;;18.40;14.90;;;18.30;56.00;;;;;;5052075;28;20175;-63
2021/05/20 09:45:25;;;;;;;19.27;15.10;;;18.30;56.00;;;;;;5052305;28;20172;-64
2021/05/20 09:47:51;;;;;;;17.83;13.65;;;18.30;56.00;;;;;;5050522;28;20634;-64
2021/05/20 09:50:21;;;;;;;17.23;14.40;;;18.30;55.80;;;;;;5052190;28;20187;-64
2021/05/20 09:52:50;;;;;;;19.45;15.18;;;18.30;56.00;;;;;;5051410;28;20566;-64
2021/05/20 09:55:18;;;;;;;16.90;14.20;;;18.30;56.00;;;;;;5050097;28;20302;-64
2021/05/20 09:57:43;;;;;;;16.55;14.23;;;18.30;56.00;;;;;;5051782;28;20183;-64
2021/05/20 10:00:15;;;;;;;16.95;14.25;;;18.30;55.90;;;;;;5051200;28;20561;-64
2021/05/20 10:02:41;;;;;;;16.58;13.55;;;18.30;55.80;;;;;;5055119;28;20698;-68
2021/05/20 10:05:46;;;;;;;18.63;14.98;;;18.30;55.90;;;;;;5055130;28;20175;-64
2021/05/20 10:08:15;;;;;;;15.02;13.43;;;18.30;55.80;;;;;;4993098;28;20181;-64
2021/05/20 10:10:45;;;;;;;14.73;13.02;;;18.30;55.80;;;;;;4993322;28;20177;-65
2021/05/20 10:13:15;;;;;;;14.93;13.30;;;18.30;55.70;;;;;;5025676;28;20708;-65
2021/05/20 10:15:40;;;;;;;15.95;12.05;;;18.40;55.70;;;;;;5054295;28;20190;-65
2021/05/20 10:18:10;;;;;;;13.38;11.98;;;18.40;55.60;;;;;;5055370;28;20167;-66
2021/05/20 10:20:36;;;;;;;15.73;12.35;;;18.40;55.60;;;;;;5037057;28;20179;-66
2021/05/20 10:23:06;;;;;;;12.90;11.52;;;18.50;55.60;;;;;;5054193;28;20178;-66
2021/05/20 10:25:31;;;;;;;12.50;11.20;;;18.40;55.50;;;;;;5037063;28;20186;-65
2021/05/20 10:27:57;;;;;;;12.55;11.25;;;18.50;55.60;;;;;;5037142;28;20175;-64
2021/05/20 10:30:23;;;;;;;12.63;11.15;;;18.50;55.60;;;;;;5036796;28;20692;-64
2021/05/20 10:32:48;;;;;;;13.85;10.10;;;18.50;55.60;;;;;;5054274;28;20262;-64
2021/05/20 10:35:15;;;;;;;11.25;9.85;;;18.60;55.50;;;;;;5035291;28;20171;-64
2021/05/20 10:37:41;;;;;;;11.07;9.63;;;18.60;55.40;;;;;;5054666;28;20537;-64
2021/05/20 10:40:25;;;;;;;10.32;9.25;;;18.60;55.40;;;;;;5054356;28;20641;-64
2021/05/20 10:43:10;;;;;;;9.88;8.98;;;18.50;55.50;;;;;;5053439;28;20728;-65
2021/05/20 10:45:37;;;;;;;10.98;8.65;;;18.50;55.60;;;;;;5054463;28;20183;-64
2021/05/20 10:48:03;;;;;;;9.50;8.35;;;18.50;56.20;;;;;;5054532;28;20389;-64
2021/05/20 10:50:51;;;;;;;10.13;8.30;;;18.50;55.80;;;;;;5053626;28;20542;-65
2021/05/20 10:53:38;;;;;;;11.18;8.75;;;18.50;55.70;;;;;;5054351;28;20211;-66
2021/05/20 10:56:08;;;;;;;10.38;8.40;;;18.60;55.70;;;;;;5054392;28;20186;-66
2021/05/20 10:58:37;;;;;;;9.18;7.97;;;18.70;55.60;;;;;;5053469;28;20179;-66
2021/05/20 11:01:06;;;;;;;9.93;8.40;;;18.70;55.50;;;;;;5054115;28;20179;-66
2021/05/20 11:03:51;;;;;;;8.23;7.43;;;18.70;55.50;;;;;;5053257;28;20254;-63
2021/05/20 11:06:17;;;;;;;8.43;7.57;;;18.70;55.40;;;;;;5053973;28;20175;-66
2021/05/20 11:08:45;;;;;;;8.88;7.20;;;18.70;55.40;;;;;;5053385;28;20629;-65
2021/05/20 11:11:29;;;;;;;7.18;6.47;;;18.60;55.60;;;;;;5053572;28;20622;-64
2021/05/20 11:13:55;;;;;;;8.95;7.00;;;18.60;55.50;;;;;;5052685;28;20624;-63
2021/05/20 11:16:31;;;;;;;8.82;7.15;;;18.60;55.40;;;;;;5054203;28;20187;-64
2021/05/20 11:19:25;;;;;;;7.05;6.40;;;18.70;55.50;;;;;;5051660;28;20262;-64
2021/05/20 11:22:03;;;;;;;7.72;6.93;;;18.60;55.30;;;;;;5053309;28;20186;-64
2021/05/20 11:24:33;;;;;;;7.95;7.25;;;18.70;55.40;;;;;;5052713;28;20645;-63
2021/05/20 11:26:59;;;;;;;6.78;6.07;;;18.70;55.30;;;;;;5053306;28;20178;-64
2021/05/20 11:29:25;;;;;;;7.18;6.47;;;18.60;55.30;;;;;;5053543;28;20175;-63
2021/05/20 11:31:55;;;;;;;7.18;6.20;;;18.60;55.50;;;;;;5052634;28;20178;-63
2021/05/20 11:34:25;;;;;;;6.93;6.22;;;18.60;55.50;;;;;;5052461;28;20179;-63
2021/05/20 11:36:51;;;;;;;6.57;5.97;;;18.70;55.30;;;;;;5053099;28;20228;-64
2021/05/20 11:39:18;;;;;;;7.30;5.97;;;18.60;55.30;;;;;;5053058;28;20190;-63
2021/05/20 11:41:44;;;;;;;6.05;5.55;;;18.70;55.40;;;;;;5053420;28;20180;-64
2021/05/20 11:44:17;;;;;;;7.15;6.45;;;18.70;55.30;;;;;;5053753;28;20190;-65
2021/05/20 11:46:48;;;;;;;6.60;5.88;;;18.60;55.30;;;;;;5033039;28;20171;-65
2021/05/20 11:49:23;;;;;;;6.60;5.93;;;18.70;55.30;;;;;;5033594;28;20184;-64
2021/05/20 11:51:53;;;;;;;6.30;5.70;;;18.80;55.20;;;;;;5033029;28;20547;-64
2021/05/20 11:54:20;;;;;;;6.57;5.88;;;18.70;55.00;;;;;;5032568;28;20184;-64
2021/05/20 11:56:52;;;;;;;6.30;5.70;;;18.80;55.10;;;;;;5033137;28;20533;-64
2021/05/20 11:59:33;;;;;;;6.47;5.88;;;18.80;54.90;;;;;;5045456;28;20171;-64
2021/05/20 12:01:59;;;;;;;6.22;5.68;;;18.90;54.90;;;;;;5052302;28;20560;-64
2021/05/20 12:04:25;;;;;;;6.05;5.53;;;18.90;54.80;;;;;;5053066;28;20278;-65
2021/05/20 12:06:51;;;;;;;7.22;6.03;;;18.90;54.70;;;;;;5051915;28;20175;-65
2021/05/20 12:09:16;;;;;;;8.27;6.40;;;19.00;54.60;;;;;;5053213;28;20189;-64
2021/05/20 12:11:42;;;;;;;8.05;6.47;;;19.00;54.60;;;;;;5052641;28;20172;-64
2021/05/20 12:14:33;;;;;;;7.45;6.75;;;19.00;54.60;;;;;;5052517;28;20183;-64
2021/05/20 12:17:00;;;;;;;8.07;6.50;;;19.00;54.60;;;;;;5049799;28;20637;-64
2021/05/20 12:19:26;;;;;;;7.10;6.47;;;19.00;54.60;;;;;;5052983;28;20263;-65
2021/05/20 12:22:06;;;;;;;8.75;7.28;;;19.00;54.60;;;;;;5051966;28;20209;-65
2021/05/20 12:24:52;;;;;;;8.20;7.40;;;19.00;54.50;;;;;;5052629;28;20179;-65
2021/05/20 12:27:20;;;;;;;9.18;7.82;;;19.00;54.40;;;;;;5053063;28;20582;-64
2021/05/20 12:29:51;;;;;;;8.68;7.80;;;19.00;54.30;;;;;;5051578;28;20175;-64
2021/05/20 12:32:34;;;;;;;8.55;7.70;;;19.00;54.40;;;;;;5053003;28;20211;-64
2021/05/20 12:35:19;;;;;;;9.13;8.20;;;19.00;54.30;;;;;;5051676;28;20217;-65
2021/05/20 12:38:15;;;;;;;10.57;9.25;;;18.90;54.30;;;;;;5052261;28;20179;-63
2021/05/20 12:40:50;;;;;;;9.73;8.60;;;19.00;54.50;;;;;;5052351;28;20209;-66
2021/05/20 12:43:28;;;;;;;10.65;8.88;;;18.90;54.40;;;;;;5050209;28;20171;-64
2021/05/20 12:46:03;;;;;;;10.52;9.43;;;18.80;54.40;;;;;;5052016;28;20706;-65
2021/05/20 12:48:35;;;;;;;11.52;10.32;;;18.80;54.50;;;;;;5052444;28;20613;-66